sensor_id;sensor_type;location;lat;lon;timestamp;P1;durP1;ratioP1;P2;durP2;ratioP2
58101;SDS011;52034;51.926;6.320;2023-01-01T00:00:43;18.13;;;8.43;;
58101;SDS011;52034;51.926;6.320;2023-01-01T00:01:43;11.90;;;7.50;;
58101;SDS011;52034;51.926;6.320;2023-01-01T00:02:44;16.13;;;8.43;;
58101;SDS011;52034;51.926;6.320;2023-01-01T00:03:48;16.73;;;8.10;;
58101;SDS011;52034;51.926;6.320;2023-01-01T00:04:49;15.02;;;6.95;;
58101;SDS011;52034;51.926;6.320;2023-01-01T00:05:50;13.27;;;6.70;;
58101;SDS011;52034;51.926;6.320;2023-01-01T00:06:50;13.43;;;7.13;;
58101;SDS011;52034;51.926;6.320;2023-01-01T00:07:50;11.60;;;7.03;;
58101;SDS011;52034;51.926;6.320;2023-01-01T00:08:51;9.87;;;6.93;;
58101;SDS011;52034;51.926;6.320;2023-01-01T00:10:10;13.65;;;6.53;;
58101;SDS011;52034;51.926;6.320;2023-01-01T00:11:28;11.82;;;6.70;;
58101;SDS011;52034;51.926;6.320;2023-01-01T00:12:30;13.00;;;6.90;;
58101;SDS011;52034;51.926;6.320;2023-01-01T00:13:31;12.15;;;6.43;;
58101;SDS011;52034;51.926;6.320;2023-01-01T00:14:32;9.98;;;6.75;;
58101;SDS011;52034;51.926;6.320;2023-01-01T00:15:32;7.90;;;4.90;;
58101;SDS011;52034;51.926;6.320;2023-01-01T00:16:33;11.43;;;5.93;;
58101;SDS011;52034;51.926;6.320;2023-01-01T00:17:34;9.47;;;5.93;;
58101;SDS011;52034;51.926;6.320;2023-01-01T00:18:34;16.63;;;7.97;;
58101;SDS011;52034;51.926;6.320;2023-01-01T00:19:35;11.40;;;5.97;;
58101;SDS011;52034;51.926;6.320;2023-01-01T00:20:35;13.00;;;6.53;;
58101;SDS011;52034;51.926;6.320;2023-01-01T00:21:35;12.53;;;6.53;;
58101;SDS011;52034;51.926;6.320;2023-01-01T00:22:36;15.43;;;7.37;;
58101;SDS011;52034;51.926;6.320;2023-01-01T00:23:37;16.13;;;6.60;;
58101;SDS011;52034;51.926;6.320;2023-01-01T00:24:38;16.70;;;5.88;;
58101;SDS011;52034;51.926;6.320;2023-01-01T00:25:38;14.53;;;7.97;;
58101;SDS011;52034;51.926;6.320;2023-01-01T00:26:39;9.55;;;5.05;;
58101;SDS011;52034;51.926;6.320;2023-01-01T00:27:40;9.17;;;6.70;;
58101;SDS011;52034;51.926;6.320;2023-01-01T00:28:41;10.38;;;5.93;;
58101;SDS011;52034;51.926;6.320;2023-01-01T00:29:43;11.48;;;6.68;;
58101;SDS011;52034;51.926;6.320;2023-01-01T00:30:43;8.17;;;5.77;;
58101;SDS011;52034;51.926;6.320;2023-01-01T00:31:43;14.37;;;6.40;;
58101;SDS011;52034;51.926;6.320;2023-01-01T00:32:44;11.67;;;6.00;;
58101;SDS011;52034;51.926;6.320;2023-01-01T00:33:45;12.60;;;6.20;;
58101;SDS011;52034;51.926;6.320;2023-01-01T00:34:50;10.63;;;5.90;;
58101;SDS011;52034;51.926;6.320;2023-01-01T00:35:50;10.63;;;5.13;;
58101;SDS011;52034;51.926;6.320;2023-01-01T00:36:51;10.57;;;6.20;;
58101;SDS011;52034;51.926;6.320;2023-01-01T00:37:51;9.23;;;6.07;;
58101;SDS011;52034;51.926;6.320;2023-01-01T00:38:53;11.10;;;6.25;;
58101;SDS011;52034;51.926;6.320;2023-01-01T00:39:53;12.90;;;7.80;;
58101;SDS011;52034;51.926;6.320;2023-01-01T00:40:53;15.07;;;7.87;;
58101;SDS011;52034;51.926;6.320;2023-01-01T00:41:54;17.30;;;7.47;;
58101;SDS011;52034;51.926;6.320;2023-01-01T00:42:54;14.07;;;7.23;;
58101;SDS011;52034;51.926;6.320;2023-01-01T00:43:55;16.00;;;8.67;;
58101;SDS011;52034;51.926;6.320;2023-01-01T00:44:55;11.17;;;4.60;;
58101;SDS011;52034;51.926;6.320;2023-01-01T00:45:56;13.03;;;6.50;;
58101;SDS011;52034;51.926;6.320;2023-01-01T00:46:56;15.87;;;7.77;;
58101;SDS011;52034;51.926;6.320;2023-01-01T00:47:56;18.77;;;10.50;;
58101;SDS011;52034;51.926;6.320;2023-01-01T00:48:57;18.63;;;8.97;;
58101;SDS011;52034;51.926;6.320;2023-01-01T00:49:57;13.73;;;9.00;;
58101;SDS011;52034;51.926;6.320;2023-01-01T00:50:57;13.47;;;7.97;;
58101;SDS011;52034;51.926;6.320;2023-01-01T00:51:58;18.95;;;9.50;;
58101;SDS011;52034;51.926;6.320;2023-01-01T00:52:59;11.50;;;6.50;;
58101;SDS011;52034;51.926;6.320;2023-01-01T00:53:59;21.80;;;10.47;;
58101;SDS011;52034;51.926;6.320;2023-01-01T00:54:59;15.77;;;9.70;;
58101;SDS011;52034;51.926;6.320;2023-01-01T00:56:00;15.43;;;8.97;;
58101;SDS011;52034;51.926;6.320;2023-01-01T00:57:00;18.20;;;10.43;;
58101;SDS011;52034;51.926;6.320;2023-01-01T00:58:00;14.00;;;6.60;;
58101;SDS011;52034;51.926;6.320;2023-01-01T00:59:01;21.40;;;10.53;;
58101;SDS011;52034;51.926;6.320;2023-01-01T01:00:02;21.23;;;9.43;;
58101;SDS011;52034;51.926;6.320;2023-01-01T01:01:03;25.52;;;9.82;;
58101;SDS011;52034;51.926;6.320;2023-01-01T01:02:04;16.67;;;10.03;;
58101;SDS011;52034;51.926;6.320;2023-01-01T01:03:04;19.40;;;10.33;;
58101;SDS011;52034;51.926;6.320;2023-01-01T01:04:05;15.73;;;9.03;;
58101;SDS011;52034;51.926;6.320;2023-01-01T01:05:06;18.33;;;9.57;;
58101;SDS011;52034;51.926;6.320;2023-01-01T01:06:08;21.88;;;9.95;;
58101;SDS011;52034;51.926;6.320;2023-01-01T01:07:10;18.65;;;10.48;;
58101;SDS011;52034;51.926;6.320;2023-01-01T01:08:10;13.83;;;6.93;;
58101;SDS011;52034;51.926;6.320;2023-01-01T01:09:11;21.37;;;9.67;;
58101;SDS011;52034;51.926;6.320;2023-01-01T01:10:11;17.23;;;8.10;;
58101;SDS011;52034;51.926;6.320;2023-01-01T01:11:12;24.23;;;8.67;;
58101;SDS011;52034;51.926;6.320;2023-01-01T01:12:15;11.52;;;6.32;;
58101;SDS011;52034;51.926;6.320;2023-01-01T01:13:15;10.87;;;7.07;;
58101;SDS011;52034;51.926;6.320;2023-01-01T01:14:15;15.27;;;8.50;;
58101;SDS011;52034;51.926;6.320;2023-01-01T01:15:16;15.77;;;8.80;;
58101;SDS011;52034;51.926;6.320;2023-01-01T01:16:18;17.23;;;7.50;;
58101;SDS011;52034;51.926;6.320;2023-01-01T01:17:21;15.13;;;7.97;;
58101;SDS011;52034;51.926;6.320;2023-01-01T01:18:22;14.30;;;8.60;;
58101;SDS011;52034;51.926;6.320;2023-01-01T01:19:22;17.97;;;7.80;;
58101;SDS011;52034;51.926;6.320;2023-01-01T01:20:24;10.30;;;7.53;;
58101;SDS011;52034;51.926;6.320;2023-01-01T01:21:25;16.93;;;7.47;;
58101;SDS011;52034;51.926;6.320;2023-01-01T01:22:27;16.23;;;7.95;;
58101;SDS011;52034;51.926;6.320;2023-01-01T01:23:28;11.23;;;7.50;;
58101;SDS011;52034;51.926;6.320;2023-01-01T01:24:28;16.43;;;8.13;;
58101;SDS011;52034;51.926;6.320;2023-01-01T01:25:28;12.57;;;7.00;;
58101;SDS011;52034;51.926;6.320;2023-01-01T01:26:32;13.67;;;7.73;;
58101;SDS011;52034;51.926;6.320;2023-01-01T01:27:32;20.08;;;7.70;;
58101;SDS011;52034;51.926;6.320;2023-01-01T01:28:33;14.37;;;7.77;;
58101;SDS011;52034;51.926;6.320;2023-01-01T01:29:33;11.80;;;7.07;;
58101;SDS011;52034;51.926;6.320;2023-01-01T01:30:36;11.77;;;7.47;;
58101;SDS011;52034;51.926;6.320;2023-01-01T01:31:37;11.77;;;7.00;;
58101;SDS011;52034;51.926;6.320;2023-01-01T01:32:37;11.30;;;7.07;;
58101;SDS011;52034;51.926;6.320;2023-01-01T01:33:37;15.20;;;7.10;;
58101;SDS011;52034;51.926;6.320;2023-01-01T01:34:38;14.13;;;7.17;;
58101;SDS011;52034;51.926;6.320;2023-01-01T01:35:38;22.20;;;7.03;;
58101;SDS011;52034;51.926;6.320;2023-01-01T01:36:39;15.97;;;6.77;;
58101;SDS011;52034;51.926;6.320;2023-01-01T01:37:39;15.70;;;7.00;;
58101;SDS011;52034;51.926;6.320;2023-01-01T01:38:39;15.93;;;7.03;;
58101;SDS011;52034;51.926;6.320;2023-01-01T01:39:40;12.48;;;6.35;;
58101;SDS011;52034;51.926;6.320;2023-01-01T01:40:41;10.67;;;6.30;;
58101;SDS011;52034;51.926;6.320;2023-01-01T01:41:42;12.32;;;6.38;;
58101;SDS011;52034;51.926;6.320;2023-01-01T01:42:46;15.43;;;5.90;;
58101;SDS011;52034;51.926;6.320;2023-01-01T01:43:58;12.70;;;6.40;;
58101;SDS011;52034;51.926;6.320;2023-01-01T01:45:01;9.32;;;5.30;;
58101;SDS011;52034;51.926;6.320;2023-01-01T01:46:05;11.27;;;6.00;;
58101;SDS011;52034;51.926;6.320;2023-01-01T01:47:15;10.38;;;5.57;;
58101;SDS011;52034;51.926;6.320;2023-01-01T01:48:38;16.42;;;6.43;;
58101;SDS011;52034;51.926;6.320;2023-01-01T01:49:41;13.00;;;5.57;;
58101;SDS011;52034;51.926;6.320;2023-01-01T01:50:44;15.52;;;5.45;;
58101;SDS011;52034;51.926;6.320;2023-01-01T01:51:48;9.18;;;5.55;;
58101;SDS011;52034;51.926;6.320;2023-01-01T01:53:22;9.13;;;5.20;;
58101;SDS011;52034;51.926;6.320;2023-01-01T01:54:19;19.50;;;6.07;;
58101;SDS011;52034;51.926;6.320;2023-01-01T01:55:23;12.95;;;4.97;;
58101;SDS011;52034;51.926;6.320;2023-01-01T01:56:42;14.82;;;5.32;;
58101;SDS011;52034;51.926;6.320;2023-01-01T01:58:49;11.88;;;4.80;;
58101;SDS011;52034;51.926;6.320;2023-01-01T01:59:49;12.43;;;4.80;;
58101;SDS011;52034;51.926;6.320;2023-01-01T02:00:54;12.10;;;5.15;;
58101;SDS011;52034;51.926;6.320;2023-01-01T02:01:54;10.30;;;4.63;;
58101;SDS011;52034;51.926;6.320;2023-01-01T02:02:57;13.98;;;4.28;;
58101;SDS011;52034;51.926;6.320;2023-01-01T02:04:05;12.90;;;5.18;;
58101;SDS011;52034;51.926;6.320;2023-01-01T02:05:06;12.85;;;5.00;;
58101;SDS011;52034;51.926;6.320;2023-01-01T02:06:06;12.90;;;4.53;;
58101;SDS011;52034;51.926;6.320;2023-01-01T02:07:07;10.97;;;4.63;;
58101;SDS011;52034;51.926;6.320;2023-01-01T02:08:07;11.10;;;4.73;;
58101;SDS011;52034;51.926;6.320;2023-01-01T02:09:11;13.27;;;5.00;;
58101;SDS011;52034;51.926;6.320;2023-01-01T02:10:12;7.45;;;4.30;;
58101;SDS011;52034;51.926;6.320;2023-01-01T02:11:12;14.93;;;4.63;;
58101;SDS011;52034;51.926;6.320;2023-01-01T02:12:13;9.80;;;4.30;;
58101;SDS011;52034;51.926;6.320;2023-01-01T02:13:13;9.63;;;4.43;;
58101;SDS011;52034;51.926;6.320;2023-01-01T02:14:14;11.10;;;3.83;;
58101;SDS011;52034;51.926;6.320;2023-01-01T02:15:14;9.57;;;4.20;;
58101;SDS011;52034;51.926;6.320;2023-01-01T02:16:21;5.93;;;3.30;;
58101;SDS011;52034;51.926;6.320;2023-01-01T02:17:43;12.52;;;4.30;;
58101;SDS011;52034;51.926;6.320;2023-01-01T02:20:32;5.97;;;3.88;;
58101;SDS011;52034;51.926;6.320;2023-01-01T02:21:58;9.65;;;4.10;;
58101;SDS011;52034;51.926;6.320;2023-01-01T02:24:34;8.07;;;3.75;;
58101;SDS011;52034;51.926;6.320;2023-01-01T02:30:02;7.60;;;3.38;;
58101;SDS011;52034;51.926;6.320;2023-01-01T02:31:06;5.97;;;3.47;;
58101;SDS011;52034;51.926;6.320;2023-01-01T02:33:28;9.45;;;3.53;;
58101;SDS011;52034;51.926;6.320;2023-01-01T02:34:30;7.77;;;3.70;;
58101;SDS011;52034;51.926;6.320;2023-01-01T02:35:36;7.28;;;3.45;;
58101;SDS011;52034;51.926;6.320;2023-01-01T02:36:47;12.60;;;3.55;;
58101;SDS011;52034;51.926;6.320;2023-01-01T02:37:50;3.10;;;2.80;;
58101;SDS011;52034;51.926;6.320;2023-01-01T02:38:55;8.48;;;3.60;;
58101;SDS011;52034;51.926;6.320;2023-01-01T02:39:59;8.73;;;3.78;;
58101;SDS011;52034;51.926;6.320;2023-01-01T02:41:00;8.60;;;3.43;;
58101;SDS011;52034;51.926;6.320;2023-01-01T02:42:04;6.75;;;4.13;;
58101;SDS011;52034;51.926;6.320;2023-01-01T02:43:06;8.50;;;3.90;;
58101;SDS011;52034;51.926;6.320;2023-01-01T02:44:07;7.03;;;3.40;;
58101;SDS011;52034;51.926;6.320;2023-01-01T02:45:07;12.53;;;4.23;;
58101;SDS011;52034;51.926;6.320;2023-01-01T02:47:14;4.45;;;3.53;;
58101;SDS011;52034;51.926;6.320;2023-01-01T02:48:34;5.95;;;3.08;;
58101;SDS011;52034;51.926;6.320;2023-01-01T02:50:52;4.28;;;3.25;;
58101;SDS011;52034;51.926;6.320;2023-01-01T02:54:32;4.63;;;2.70;;
58101;SDS011;52034;51.926;6.320;2023-01-01T02:55:46;5.47;;;3.20;;
58101;SDS011;52034;51.926;6.320;2023-01-01T02:58:34;6.40;;;3.15;;
58101;SDS011;52034;51.926;6.320;2023-01-01T03:00:05;6.50;;;3.50;;
58101;SDS011;52034;51.926;6.320;2023-01-01T03:04:31;4.82;;;3.25;;
58101;SDS011;52034;51.926;6.320;2023-01-01T03:07:32;3.03;;;2.80;;
58101;SDS011;52034;51.926;6.320;2023-01-01T03:08:55;6.35;;;3.50;;
58101;SDS011;52034;51.926;6.320;2023-01-01T03:10:14;8.30;;;3.65;;
58101;SDS011;52034;51.926;6.320;2023-01-01T03:11:21;8.00;;;3.25;;
58101;SDS011;52034;51.926;6.320;2023-01-01T03:12:31;3.63;;;3.10;;
58101;SDS011;52034;51.926;6.320;2023-01-01T03:14:57;7.95;;;3.20;;
58101;SDS011;52034;51.926;6.320;2023-01-01T03:16:06;4.72;;;3.00;;
58101;SDS011;52034;51.926;6.320;2023-01-01T03:17:19;8.40;;;3.60;;
58101;SDS011;52034;51.926;6.320;2023-01-01T03:18:28;7.97;;;2.80;;
58101;SDS011;52034;51.926;6.320;2023-01-01T03:19:36;12.20;;;3.53;;
58101;SDS011;52034;51.926;6.320;2023-01-01T03:20:40;12.10;;;3.88;;
58101;SDS011;52034;51.926;6.320;2023-01-01T03:21:48;8.90;;;3.78;;
58101;SDS011;52034;51.926;6.320;2023-01-01T03:22:50;8.43;;;3.72;;
58101;SDS011;52034;51.926;6.320;2023-01-01T03:23:54;4.57;;;3.03;;
58101;SDS011;52034;51.926;6.320;2023-01-01T03:26:06;12.10;;;4.70;;
58101;SDS011;52034;51.926;6.320;2023-01-01T03:27:15;6.43;;;3.70;;
58101;SDS011;52034;51.926;6.320;2023-01-01T03:28:23;10.07;;;3.92;;
58101;SDS011;52034;51.926;6.320;2023-01-01T03:29:28;7.38;;;3.15;;
58101;SDS011;52034;51.926;6.320;2023-01-01T03:30:34;7.43;;;3.90;;
58101;SDS011;52034;51.926;6.320;2023-01-01T03:31:39;11.82;;;4.00;;
58101;SDS011;52034;51.926;6.320;2023-01-01T03:32:48;8.40;;;3.45;;
58101;SDS011;52034;51.926;6.320;2023-01-01T03:34:09;5.32;;;3.45;;
58101;SDS011;52034;51.926;6.320;2023-01-01T03:35:16;9.70;;;3.30;;
58101;SDS011;52034;51.926;6.320;2023-01-01T03:36:21;10.10;;;3.65;;
58101;SDS011;52034;51.926;6.320;2023-01-01T03:37:26;9.23;;;3.95;;
58101;SDS011;52034;51.926;6.320;2023-01-01T03:38:39;10.73;;;4.00;;
58101;SDS011;52034;51.926;6.320;2023-01-01T03:39:50;6.40;;;3.53;;
58101;SDS011;52034;51.926;6.320;2023-01-01T03:40:53;7.38;;;3.30;;
58101;SDS011;52034;51.926;6.320;2023-01-01T03:42:21;7.25;;;3.22;;
58101;SDS011;52034;51.926;6.320;2023-01-01T03:43:34;7.85;;;3.33;;
58101;SDS011;52034;51.926;6.320;2023-01-01T03:44:45;8.57;;;3.53;;
58101;SDS011;52034;51.926;6.320;2023-01-01T03:45:49;9.15;;;3.20;;
58101;SDS011;52034;51.926;6.320;2023-01-01T03:46:51;8.73;;;3.25;;
58101;SDS011;52034;51.926;6.320;2023-01-01T03:47:52;10.90;;;3.50;;
58101;SDS011;52034;51.926;6.320;2023-01-01T03:48:53;4.82;;;3.50;;
58101;SDS011;52034;51.926;6.320;2023-01-01T03:49:57;9.50;;;3.35;;
58101;SDS011;52034;51.926;6.320;2023-01-01T03:51:05;10.85;;;3.50;;
58101;SDS011;52034;51.926;6.320;2023-01-01T03:52:17;2.70;;;2.50;;
58101;SDS011;52034;51.926;6.320;2023-01-01T03:53:31;5.90;;;2.95;;
58101;SDS011;52034;51.926;6.320;2023-01-01T03:55:56;4.95;;;2.85;;
58101;SDS011;52034;51.926;6.320;2023-01-01T03:57:12;8.95;;;2.70;;
58101;SDS011;52034;51.926;6.320;2023-01-01T03:59:14;3.90;;;3.15;;
58101;SDS011;52034;51.926;6.320;2023-01-01T04:01:23;3.15;;;2.83;;
58101;SDS011;52034;51.926;6.320;2023-01-01T04:02:27;11.13;;;3.50;;
58101;SDS011;52034;51.926;6.320;2023-01-01T04:03:33;8.52;;;3.40;;
58101;SDS011;52034;51.926;6.320;2023-01-01T04:04:36;6.50;;;3.10;;
58101;SDS011;52034;51.926;6.320;2023-01-01T04:05:38;10.48;;;3.03;;
58101;SDS011;52034;51.926;6.320;2023-01-01T04:06:40;7.90;;;3.17;;
58101;SDS011;52034;51.926;6.320;2023-01-01T04:07:40;7.03;;;3.10;;
58101;SDS011;52034;51.926;6.320;2023-01-01T04:08:42;12.02;;;3.38;;
58101;SDS011;52034;51.926;6.320;2023-01-01T04:09:44;6.73;;;3.00;;
58101;SDS011;52034;51.926;6.320;2023-01-01T04:10:52;3.28;;;2.28;;
58101;SDS011;52034;51.926;6.320;2023-01-01T04:11:55;2.35;;;2.17;;
58101;SDS011;52034;51.926;6.320;2023-01-01T04:13:02;2.45;;;2.08;;
58101;SDS011;52034;51.926;6.320;2023-01-01T04:14:04;5.40;;;2.90;;
58101;SDS011;52034;51.926;6.320;2023-01-01T04:15:04;6.20;;;2.83;;
58101;SDS011;52034;51.926;6.320;2023-01-01T04:16:05;5.88;;;3.00;;
58101;SDS011;52034;51.926;6.320;2023-01-01T04:17:08;9.18;;;3.00;;
58101;SDS011;52034;51.926;6.320;2023-01-01T04:18:09;9.48;;;2.35;;
58101;SDS011;52034;51.926;6.320;2023-01-01T04:19:09;10.73;;;3.80;;
58101;SDS011;52034;51.926;6.320;2023-01-01T04:20:10;6.83;;;3.23;;
58101;SDS011;52034;51.926;6.320;2023-01-01T04:21:11;5.70;;;2.58;;
58101;SDS011;52034;51.926;6.320;2023-01-01T04:22:12;5.07;;;2.60;;
58101;SDS011;52034;51.926;6.320;2023-01-01T04:23:12;9.17;;;3.13;;
58101;SDS011;52034;51.926;6.320;2023-01-01T04:24:12;5.67;;;3.03;;
58101;SDS011;52034;51.926;6.320;2023-01-01T04:25:14;4.68;;;2.65;;
58101;SDS011;52034;51.926;6.320;2023-01-01T04:26:16;6.40;;;2.90;;
58101;SDS011;52034;51.926;6.320;2023-01-01T04:27:16;2.47;;;2.10;;
58101;SDS011;52034;51.926;6.320;2023-01-01T04:28:16;4.70;;;3.30;;
58101;SDS011;52034;51.926;6.320;2023-01-01T04:29:17;9.67;;;2.70;;
58101;SDS011;52034;51.926;6.320;2023-01-01T04:30:18;6.88;;;3.33;;
58101;SDS011;52034;51.926;6.320;2023-01-01T04:31:19;7.90;;;3.30;;
58101;SDS011;52034;51.926;6.320;2023-01-01T04:32:19;3.03;;;2.33;;
58101;SDS011;52034;51.926;6.320;2023-01-01T04:33:20;8.97;;;3.40;;
58101;SDS011;52034;51.926;6.320;2023-01-01T04:34:20;2.47;;;2.22;;
58101;SDS011;52034;51.926;6.320;2023-01-01T04:35:21;4.70;;;3.00;;
58101;SDS011;52034;51.926;6.320;2023-01-01T04:36:22;9.40;;;3.10;;
58101;SDS011;52034;51.926;6.320;2023-01-01T04:37:22;4.60;;;2.93;;
58101;SDS011;52034;51.926;6.320;2023-01-01T04:38:22;5.43;;;2.70;;
58101;SDS011;52034;51.926;6.320;2023-01-01T04:39:23;5.83;;;3.20;;
58101;SDS011;52034;51.926;6.320;2023-01-01T04:40:24;6.57;;;3.00;;
58101;SDS011;52034;51.926;6.320;2023-01-01T04:41:24;6.87;;;3.07;;
58101;SDS011;52034;51.926;6.320;2023-01-01T04:42:25;4.60;;;2.73;;
58101;SDS011;52034;51.926;6.320;2023-01-01T04:43:25;8.50;;;3.10;;
58101;SDS011;52034;51.926;6.320;2023-01-01T04:44:25;7.67;;;2.83;;
58101;SDS011;52034;51.926;6.320;2023-01-01T04:45:26;7.70;;;2.97;;
58101;SDS011;52034;51.926;6.320;2023-01-01T04:46:26;7.20;;;3.27;;
58101;SDS011;52034;51.926;6.320;2023-01-01T04:47:27;4.67;;;3.30;;
58101;SDS011;52034;51.926;6.320;2023-01-01T04:48:28;8.10;;;3.20;;
58101;SDS011;52034;51.926;6.320;2023-01-01T04:49:29;9.02;;;3.25;;
58101;SDS011;52034;51.926;6.320;2023-01-01T04:50:29;12.73;;;3.47;;
58101;SDS011;52034;51.926;6.320;2023-01-01T04:51:30;4.30;;;2.70;;
58101;SDS011;52034;51.926;6.320;2023-01-01T04:52:30;5.07;;;2.83;;
58101;SDS011;52034;51.926;6.320;2023-01-01T04:53:31;7.37;;;3.37;;
58101;SDS011;52034;51.926;6.320;2023-01-01T04:54:33;4.05;;;2.45;;
58101;SDS011;52034;51.926;6.320;2023-01-01T04:55:33;5.67;;;2.80;;
58101;SDS011;52034;51.926;6.320;2023-01-01T04:56:33;7.03;;;3.50;;
58101;SDS011;52034;51.926;6.320;2023-01-01T04:57:34;7.37;;;2.80;;
58101;SDS011;52034;51.926;6.320;2023-01-01T04:58:35;6.03;;;3.70;;
58101;SDS011;52034;51.926;6.320;2023-01-01T04:59:37;4.03;;;3.00;;
58101;SDS011;52034;51.926;6.320;2023-01-01T05:00:37;8.43;;;3.27;;
58101;SDS011;52034;51.926;6.320;2023-01-01T05:01:37;4.93;;;2.80;;
58101;SDS011;52034;51.926;6.320;2023-01-01T05:02:38;8.57;;;3.20;;
58101;SDS011;52034;51.926;6.320;2023-01-01T05:03:38;5.17;;;2.60;;
58101;SDS011;52034;51.926;6.320;2023-01-01T05:04:38;5.83;;;2.90;;
58101;SDS011;52034;51.926;6.320;2023-01-01T05:05:39;7.97;;;2.97;;
58101;SDS011;52034;51.926;6.320;2023-01-01T05:06:39;5.47;;;3.20;;
58101;SDS011;52034;51.926;6.320;2023-01-01T05:07:40;4.63;;;2.63;;
58101;SDS011;52034;51.926;6.320;2023-01-01T05:08:41;8.73;;;3.10;;
58101;SDS011;52034;51.926;6.320;2023-01-01T05:09:43;5.68;;;3.13;;
58101;SDS011;52034;51.926;6.320;2023-01-01T05:10:44;7.80;;;3.03;;
58101;SDS011;52034;51.926;6.320;2023-01-01T05:11:44;6.60;;;3.73;;
58101;SDS011;52034;51.926;6.320;2023-01-01T05:12:44;5.23;;;2.93;;
58101;SDS011;52034;51.926;6.320;2023-01-01T05:13:45;3.07;;;2.37;;
58101;SDS011;52034;51.926;6.320;2023-01-01T05:14:47;7.97;;;2.70;;
58101;SDS011;52034;51.926;6.320;2023-01-01T05:15:48;4.50;;;3.50;;
58101;SDS011;52034;51.926;6.320;2023-01-01T05:16:49;5.68;;;2.90;;
58101;SDS011;52034;51.926;6.320;2023-01-01T05:17:50;5.37;;;2.87;;
58101;SDS011;52034;51.926;6.320;2023-01-01T05:18:50;3.77;;;2.80;;
58101;SDS011;52034;51.926;6.320;2023-01-01T05:19:51;4.00;;;2.88;;
58101;SDS011;52034;51.926;6.320;2023-01-01T05:20:51;9.23;;;2.63;;
58101;SDS011;52034;51.926;6.320;2023-01-01T05:21:52;2.80;;;2.57;;
58101;SDS011;52034;51.926;6.320;2023-01-01T05:22:53;5.88;;;2.85;;
58101;SDS011;52034;51.926;6.320;2023-01-01T05:23:55;5.70;;;2.43;;
58101;SDS011;52034;51.926;6.320;2023-01-01T05:24:58;2.10;;;2.00;;
58101;SDS011;52034;51.926;6.320;2023-01-01T05:25:58;4.67;;;2.33;;
58101;SDS011;52034;51.926;6.320;2023-01-01T05:26:58;7.13;;;3.60;;
58101;SDS011;52034;51.926;6.320;2023-01-01T05:27:59;7.60;;;3.13;;
58101;SDS011;52034;51.926;6.320;2023-01-01T05:28:59;7.33;;;2.93;;
58101;SDS011;52034;51.926;6.320;2023-01-01T05:30:00;6.03;;;3.10;;
58101;SDS011;52034;51.926;6.320;2023-01-01T05:31:03;4.77;;;2.80;;
58101;SDS011;52034;51.926;6.320;2023-01-01T05:32:05;3.95;;;2.90;;
58101;SDS011;52034;51.926;6.320;2023-01-01T05:33:05;2.30;;;2.17;;
58101;SDS011;52034;51.926;6.320;2023-01-01T05:34:06;3.57;;;2.43;;
58101;SDS011;52034;51.926;6.320;2023-01-01T05:35:06;3.53;;;2.60;;
58101;SDS011;52034;51.926;6.320;2023-01-01T05:36:07;8.30;;;3.03;;
58101;SDS011;52034;51.926;6.320;2023-01-01T05:37:13;6.53;;;3.00;;
58101;SDS011;52034;51.926;6.320;2023-01-01T05:38:14;4.60;;;3.00;;
58101;SDS011;52034;51.926;6.320;2023-01-01T05:39:14;5.70;;;2.87;;
58101;SDS011;52034;51.926;6.320;2023-01-01T05:40:15;7.27;;;3.50;;
58101;SDS011;52034;51.926;6.320;2023-01-01T05:41:16;7.70;;;3.00;;
58101;SDS011;52034;51.926;6.320;2023-01-01T05:42:17;9.02;;;3.35;;
58101;SDS011;52034;51.926;6.320;2023-01-01T05:43:17;5.57;;;2.70;;
58101;SDS011;52034;51.926;6.320;2023-01-01T05:44:18;7.70;;;2.90;;
58101;SDS011;52034;51.926;6.320;2023-01-01T05:45:18;11.43;;;3.50;;
58101;SDS011;52034;51.926;6.320;2023-01-01T05:46:20;6.27;;;2.87;;
58101;SDS011;52034;51.926;6.320;2023-01-01T05:47:22;8.20;;;3.47;;
58101;SDS011;52034;51.926;6.320;2023-01-01T05:48:22;6.47;;;2.70;;
58101;SDS011;52034;51.926;6.320;2023-01-01T05:49:22;3.57;;;3.13;;
58101;SDS011;52034;51.926;6.320;2023-01-01T05:50:23;6.97;;;2.90;;
58101;SDS011;52034;51.926;6.320;2023-01-01T05:51:24;4.80;;;3.00;;
58101;SDS011;52034;51.926;6.320;2023-01-01T05:52:25;5.25;;;2.88;;
58101;SDS011;52034;51.926;6.320;2023-01-01T05:53:27;3.47;;;2.87;;
58101;SDS011;52034;51.926;6.320;2023-01-01T05:54:27;6.20;;;3.05;;
58101;SDS011;52034;51.926;6.320;2023-01-01T05:55:28;7.23;;;3.17;;
58101;SDS011;52034;51.926;6.320;2023-01-01T05:56:28;2.83;;;2.53;;
58101;SDS011;52034;51.926;6.320;2023-01-01T05:57:28;12.67;;;3.40;;
58101;SDS011;52034;51.926;6.320;2023-01-01T05:58:29;7.40;;;3.43;;
58101;SDS011;52034;51.926;6.320;2023-01-01T05:59:32;5.75;;;2.55;;
58101;SDS011;52034;51.926;6.320;2023-01-01T06:00:32;5.30;;;3.43;;
58101;SDS011;52034;51.926;6.320;2023-01-01T06:01:33;6.30;;;2.80;;
58101;SDS011;52034;51.926;6.320;2023-01-01T06:02:33;6.93;;;3.10;;
58101;SDS011;52034;51.926;6.320;2023-01-01T06:03:34;7.53;;;3.40;;
58101;SDS011;52034;51.926;6.320;2023-01-01T06:04:35;9.52;;;3.25;;
58101;SDS011;52034;51.926;6.320;2023-01-01T06:05:35;7.37;;;3.00;;
58101;SDS011;52034;51.926;6.320;2023-01-01T06:06:36;13.13;;;3.47;;
58101;SDS011;52034;51.926;6.320;2023-01-01T06:07:36;7.17;;;3.23;;
58101;SDS011;52034;51.926;6.320;2023-01-01T06:08:37;9.87;;;3.30;;
58101;SDS011;52034;51.926;6.320;2023-01-01T06:09:37;7.53;;;3.50;;
58101;SDS011;52034;51.926;6.320;2023-01-01T06:10:38;9.60;;;3.40;;
58101;SDS011;52034;51.926;6.320;2023-01-01T06:11:38;7.30;;;3.33;;
58101;SDS011;52034;51.926;6.320;2023-01-01T06:12:39;4.63;;;3.20;;
58101;SDS011;52034;51.926;6.320;2023-01-01T06:13:39;6.20;;;3.17;;
58101;SDS011;52034;51.926;6.320;2023-01-01T06:14:39;6.83;;;2.37;;
58101;SDS011;52034;51.926;6.320;2023-01-01T06:15:40;5.90;;;2.50;;
58101;SDS011;52034;51.926;6.320;2023-01-01T06:16:40;3.47;;;2.27;;
58101;SDS011;52034;51.926;6.320;2023-01-01T06:17:41;6.68;;;3.05;;
58101;SDS011;52034;51.926;6.320;2023-01-01T06:18:42;4.47;;;3.13;;
58101;SDS011;52034;51.926;6.320;2023-01-01T06:19:42;8.13;;;3.23;;
58101;SDS011;52034;51.926;6.320;2023-01-01T06:20:42;5.40;;;2.90;;
58101;SDS011;52034;51.926;6.320;2023-01-01T06:21:43;5.43;;;2.77;;
58101;SDS011;52034;51.926;6.320;2023-01-01T06:22:43;3.37;;;2.33;;
58101;SDS011;52034;51.926;6.320;2023-01-01T06:23:43;9.10;;;3.10;;
58101;SDS011;52034;51.926;6.320;2023-01-01T06:24:44;11.70;;;3.23;;
58101;SDS011;52034;51.926;6.320;2023-01-01T06:25:44;4.60;;;3.20;;
58101;SDS011;52034;51.926;6.320;2023-01-01T06:26:46;7.55;;;3.38;;
58101;SDS011;52034;51.926;6.320;2023-01-01T06:27:47;2.97;;;2.50;;
58101;SDS011;52034;51.926;6.320;2023-01-01T06:28:47;3.50;;;2.73;;
58101;SDS011;52034;51.926;6.320;2023-01-01T06:29:48;5.78;;;2.95;;
58101;SDS011;52034;51.926;6.320;2023-01-01T06:30:48;3.00;;;2.60;;
58101;SDS011;52034;51.926;6.320;2023-01-01T06:31:48;2.10;;;2.00;;
58101;SDS011;52034;51.926;6.320;2023-01-01T06:32:49;3.70;;;2.63;;
58101;SDS011;52034;51.926;6.320;2023-01-01T06:33:49;6.67;;;2.33;;
58101;SDS011;52034;51.926;6.320;2023-01-01T06:34:50;3.73;;;2.83;;
58101;SDS011;52034;51.926;6.320;2023-01-01T06:35:50;2.93;;;2.63;;
58101;SDS011;52034;51.926;6.320;2023-01-01T06:36:50;6.77;;;2.77;;
58101;SDS011;52034;51.926;6.320;2023-01-01T06:37:50;6.13;;;3.03;;
58101;SDS011;52034;51.926;6.320;2023-01-01T06:38:53;4.43;;;2.57;;
58101;SDS011;52034;51.926;6.320;2023-01-01T06:39:55;6.30;;;2.22;;
58101;SDS011;52034;51.926;6.320;2023-01-01T06:40:59;3.07;;;2.40;;
58101;SDS011;52034;51.926;6.320;2023-01-01T06:42:01;6.10;;;2.78;;
58101;SDS011;52034;51.926;6.320;2023-01-01T06:43:02;2.87;;;2.67;;
58101;SDS011;52034;51.926;6.320;2023-01-01T06:44:02;4.17;;;2.57;;